ID Time Temp Humidity Light PM2.5 PM10 Voltage Extra Firmware Position Fcnt TTN version Gateways Distance RSSI LSNR Radiosettings
2026-05-07 16:41:18 16.25°C 61.25% 2 μg/m³ 2 μg/m³ 3.27V v255 52.1224 / 5.18616 24014 ttn.v3 - -108 2 867.9MHz, SF9BW125, 4/5CR
3.78km -104 -4.25 867.9MHz, SF9BW125, 4/5CR
- -127 -11 867.9MHz, SF9BW125, 4/5CR
2026-05-07 16:24:52 16°C 58.75% 2 μg/m³ 2 μg/m³ 3.27V v255 52.1224 / 5.18616 24013 ttn.v3 - -122 -12.25 868.3MHz, SF9BW125, 4/5CR
2026-05-07 16:08:26 15.9375°C 60.9375% 4 μg/m³ 4 μg/m³ 3.27V v255 52.1224 / 5.18616 24012 ttn.v3 3.78km -107 0 867.7MHz, SF9BW125, 4/5CR
- -130 -13 867.7MHz, SF9BW125, 4/5CR
2026-05-07 15:51:59 15.8125°C 61.75% 2 μg/m³ 2 μg/m³ 3.27V v255 52.1224 / 5.18616 24011 ttn.v3 - -125 -9.75 868.1MHz, SF9BW125, 4/5CR
2026-05-07 14:46:13 16.8125°C 58% 2 μg/m³ 2 μg/m³ 3.27V v255 52.1224 / 5.18616 24007 ttn.v3 - -130 -14 868.3MHz, SF9BW125, 4/5CR
2026-05-07 14:29:47 16.8125°C 54.375% 2 μg/m³ 2 μg/m³ 3.27V v255 52.1224 / 5.18616 24006 ttn.v3 3.78km -109 1.75 867.1MHz, SF9BW125, 4/5CR
- -116 -2 867.1MHz, SF9BW125, 4/5CR
2026-05-07 13:56:53 18.75°C 54.125% 2 μg/m³ 2 μg/m³ 3.27V v255 52.1224 / 5.18616 24004 ttn.v3 3.78km -104 -7.75 867.9MHz, SF9BW125, 4/5CR
- -124 -8.75 867.9MHz, SF9BW125, 4/5CR
- -130 -13 867.9MHz, SF9BW125, 4/5CR
2026-05-07 13:40:26 16.4375°C 61.0625% 5 μg/m³ 6 μg/m³ 3.27V v255 52.1224 / 5.18616 24003 ttn.v3 - -130 -13.5 868.5MHz, SF9BW125, 4/5CR
2026-05-07 13:24:00 15.25°C 63.3125% 7 μg/m³ 7 μg/m³ 3.27V v255 52.1224 / 5.18616 24002 ttn.v3 - -123 -6.75 867.7MHz, SF9BW125, 4/5CR
3.78km -107 -7.5 867.7MHz, SF9BW125, 4/5CR
2026-05-07 12:34:42 15.125°C 65.3125% 11 μg/m³ 12 μg/m³ 3.27V v255 52.1224 / 5.18616 23999 ttn.v3 - -112 -3 868.1MHz, SF9BW125, 4/5CR
- -124 -8 868.1MHz, SF9BW125, 4/5CR
2026-05-07 12:01:49 16.6875°C 60.0625% 2 μg/m³ 2 μg/m³ 3.27V v255 52.1224 / 5.18616 23997 ttn.v3 - -122 -8 868.5MHz, SF9BW125, 4/5CR
2026-05-07 11:45:22 21.375°C 47.8125% 8 μg/m³ 11 μg/m³ 3.26V v255 52.1224 / 5.18616 23996 ttn.v3 3.78km -109 0.25 867.1MHz, SF9BW125, 4/5CR
- -115 -12.75 867.1MHz, SF9BW125, 4/5CR
2026-05-07 11:28:54 19.8125°C 52.1875% 7 μg/m³ 9 μg/m³ 3.27V v255 52.1224 / 5.18616 23995 ttn.v3 - -127 -11.5 868.3MHz, SF9BW125, 4/5CR
- -121 -12.5 868.3MHz, SF9BW125, 4/5CR
2026-05-07 11:12:27 19.5°C 52.6875% 2 μg/m³ 2 μg/m³ 3.26V v255 52.1224 / 5.18616 23994 ttn.v3 3.78km -104 -5.5 867.9MHz, SF9BW125, 4/5CR
2026-05-07 10:56:00 19°C 53.4375% 2 μg/m³ 2 μg/m³ 3.27V v255 52.1224 / 5.18616 23993 ttn.v3 - -127 -11.75 868.1MHz, SF9BW125, 4/5CR
- -130 -13.5 868.1MHz, SF9BW125, 4/5CR
2026-05-07 10:39:33 17.625°C 57.875% 3 μg/m³ 4 μg/m³ 3.27V v255 52.1224 / 5.18616 23992 ttn.v3 3.78km -105 -3 867.7MHz, SF9BW125, 4/5CR
2026-05-07 10:23:06 14.75°C 90.875% 1 μg/m³ 1 μg/m³ 3.27V v255 52.1224 / 5.18616 23991 ttn.v3 - -123 -8.25 868.5MHz, SF9BW125, 4/5CR
2026-05-07 09:17:25 10.875°C 68.3125% 12 μg/m³ 25 μg/m³ 3.27V v255 52.1224 / 5.18616 23987 ttn.v3 3.78km -102 -4.5 868.1MHz, SF9BW125, 4/5CR
2026-05-07 09:01:01 10.5°C 59.25% 6 μg/m³ 7 μg/m³ 3.27V v255 52.1224 / 5.18616 23986 ttn.v3 3.78km -107 1.5 867.1MHz, SF9BW125, 4/5CR
- -110 -7.75 867.1MHz, SF9BW125, 4/5CR
- -126 -9.25 867.1MHz, SF9BW125, 4/5CR
2026-05-07 08:44:36 10.0625°C 50.0625% 1 μg/m³ 2 μg/m³ 3.27V v255 52.1224 / 5.18616 23985 ttn.v3 - -122 -8.25 868.5MHz, SF9BW125, 4/5CR
2026-05-07 08:28:11 9.6875°C 39% 4 μg/m³ 6 μg/m³ 3.28V v255 52.1224 / 5.18616 23984 ttn.v3 3.78km -108 -2 867.9MHz, SF9BW125, 4/5CR
- -113 -2.5 867.9MHz, SF9BW125, 4/5CR
- -124 -8.5 867.9MHz, SF9BW125, 4/5CR
2026-05-07 07:55:22 8.6875°C 38.9375% 4 μg/m³ 5 μg/m³ 3.27V v255 52.1224 / 5.18616 23982 ttn.v3 - -121 -6.25 867.7MHz, SF9BW125, 4/5CR
3.78km -105 -10.25 867.7MHz, SF9BW125, 4/5CR
2026-05-07 07:38:58 8.3125°C 38.875% 2 μg/m³ 3 μg/m³ 3.28V v255 52.1224 / 5.18616 23981 ttn.v3 - -122 -7.5 868.1MHz, SF9BW125, 4/5CR
2026-05-07 07:22:34 7.875°C 38.8125% 4 μg/m³ 4 μg/m³ 3.28V v255 52.1224 / 5.18616 23980 ttn.v3 - -121 -9.25 867.5MHz, SF9BW125, 4/5CR
2026-05-07 07:06:10 7.625°C 38.8125% 7 μg/m³ 10 μg/m³ 3.28V v255 52.1224 / 5.18616 23979 ttn.v3 - -127 -12.25 868.5MHz, SF9BW125, 4/5CR
2026-05-07 06:49:45 7.5°C 38.8125% 10 μg/m³ 15 μg/m³ 3.28V v255 52.1224 / 5.18616 23978 ttn.v3 - -111 -0.5 867.3MHz, SF9BW125, 4/5CR
3.78km -99 -1.75 867.3MHz, SF9BW125, 4/5CR
- -124 -8.75 867.3MHz, SF9BW125, 4/5CR
2026-05-07 06:16:57 6.9375°C 38.75% 4 μg/m³ 5 μg/m³ 3.28V v255 52.1224 / 5.18616 23976 ttn.v3 3.78km -105 -5 867.1MHz, SF9BW125, 4/5CR
2026-05-07 06:00:33 6.75°C 38.75% 8 μg/m³ 11 μg/m³ 3.28V v255 52.1224 / 5.18616 23975 ttn.v3 3.78km -105 -6.25 868.1MHz, SF9BW125, 4/5CR
- -125 -9.25 868.1MHz, SF9BW125, 4/5CR
- -116 -13.25 868.1MHz, SF9BW125, 4/5CR
2026-05-07 05:44:09 6.75°C 38.6875% 2 μg/m³ 3 μg/m³ 3.28V v255 52.1224 / 5.18616 23974 ttn.v3 - -131 -14.5 867.9MHz, SF9BW125, 4/5CR
2026-05-07 05:11:21 6.8125°C 38.75% 2 μg/m³ 3 μg/m³ 3.28V v255 52.1224 / 5.18616 23972 ttn.v3 3.78km -107 -6.75 867.7MHz, SF9BW125, 4/5CR
2026-05-07 04:38:33 6.875°C 38.75% 2 μg/m³ 2 μg/m³ 3.28V v255 52.1224 / 5.18616 23970 ttn.v3 - -120 -7.25 867.5MHz, SF9BW125, 4/5CR
- -111 -13.75 867.5MHz, SF9BW125, 4/5CR
2026-05-07 04:22:09 7°C 38.75% 4 μg/m³ 6 μg/m³ 3.28V v255 52.1224 / 5.18616 23969 ttn.v3 - -119 -6.75 868.1MHz, SF9BW125, 4/5CR
- -125 -10.25 868.1MHz, SF9BW125, 4/5CR
2026-05-07 04:05:45 7.375°C 38.75% 3 μg/m³ 4 μg/m³ 3.28V v255 52.1224 / 5.18616 23968 ttn.v3 - -113 0.25 867.3MHz, SF9BW125, 4/5CR
3.78km -109 -2.5 867.3MHz, SF9BW125, 4/5CR
- -124 -8.25 867.3MHz, SF9BW125, 4/5CR
2026-05-07 03:49:21 7.75°C 38.875% 5 μg/m³ 6 μg/m³ 3.28V v255 52.1224 / 5.18616 23967 ttn.v3 - -130 -12.25 868.5MHz, SF9BW125, 4/5CR
2026-05-07 03:32:56 7.9375°C 94% 4 μg/m³ 4 μg/m³ 3.28V v255 52.1224 / 5.18616 23966 ttn.v3 3.78km -104 -3.75 867.1MHz, SF9BW125, 4/5CR
2026-05-07 03:17:21 8.0625°C 4.4375% 2 μg/m³ 2 μg/m³ 3.27V v255 52.1224 / 5.18616 23965 ttn.v3 - -125 -13.5 868.3MHz, SF12BW125, 4/5CR
- -116 -17 868.3MHz, SF12BW125, 4/5CR
3.78km -97 -17.5 868.3MHz, SF12BW125, 4/5CR
2026-05-07 03:00:12 8.1875°C 90.4375% 2 μg/m³ 3 μg/m³ 3.28V v255 52.1224 / 5.18607 23964 ttn.v3 - -112 -2.75 867.9MHz, SF9BW125, 4/5CR
3.776km -103 -7.5 867.9MHz, SF9BW125, 4/5CR
- -130 -14 867.9MHz, SF9BW125, 4/5CR
2026-05-07 02:43:48 8.3125°C 90.9375% 2 μg/m³ 2 μg/m³ 3.28V v255 52.1224 / 5.18607 23963 ttn.v3 - -122 -6 868.1MHz, SF9BW125, 4/5CR
- -122 -9.75 868.1MHz, SF9BW125, 4/5CR
2026-05-07 02:27:23 8.6875°C 118.625% 2 μg/m³ 2 μg/m³ 3.28V v255 52.1224 / 5.18607 23962 ttn.v3 - -112 1.25 867.7MHz, SF9BW125, 4/5CR
3.776km -97 -2.5 867.7MHz, SF9BW125, 4/5CR
- -121 -4.5 867.7MHz, SF9BW125, 4/5CR
- -130 -13.25 867.7MHz, SF9BW125, 4/5CR
2026-05-07 01:21:45 9.9375°C 87.6875% 2 μg/m³ 2 μg/m³ 3.27V v255 52.1224 / 5.18607 23958 ttn.v3 - -111 1 867.3MHz, SF9BW125, 4/5CR
3.776km -105 0 867.3MHz, SF9BW125, 4/5CR
- -120 -3.5 867.3MHz, SF9BW125, 4/5CR
2026-05-07 01:05:20 10.125°C 103% 5 μg/m³ 8 μg/m³ 3.27V v255 52.1224 / 5.18607 23957 ttn.v3 3.776km -107 -7.5 868.1MHz, SF9BW125, 4/5CR
- -116 -11.5 868.1MHz, SF9BW125, 4/5CR
- -130 -13.5 868.1MHz, SF9BW125, 4/5CR
2026-05-07 00:48:55 10.3125°C 104.438% 2 μg/m³ 2 μg/m³ 3.27V v255 52.1224 / 5.18607 23956 ttn.v3 - -111 -4 867.1MHz, SF9BW125, 4/5CR
3.776km -104 -6.25 867.1MHz, SF9BW125, 4/5CR
- -120 -6.5 867.1MHz, SF9BW125, 4/5CR
2026-05-07 00:32:30 10.5°C 105% 3 μg/m³ 3 μg/m³ 3.27V v255 52.1224 / 5.18607 23955 ttn.v3 - -126 -9.75 868.5MHz, SF9BW125, 4/5CR
2026-05-07 00:16:05 10.75°C 114.312% 6 μg/m³ 9 μg/m³ 3.27V v255 52.1224 / 5.18607 23954 ttn.v3 - -113 1 867.9MHz, SF9BW125, 4/5CR
3.776km -107 0.25 867.9MHz, SF9BW125, 4/5CR
- -126 -10 867.9MHz, SF9BW125, 4/5CR
- -131 -14.75 867.9MHz, SF9BW125, 4/5CR
2026-05-06 23:43:15 11°C 114.188% 4 μg/m³ 5 μg/m³ 3.27V v255 52.1224 / 5.18607 23952 ttn.v3 3.776km -104 0 867.7MHz, SF9BW125, 4/5CR
- -129 -11.75 867.7MHz, SF9BW125, 4/5CR
2026-05-06 23:26:50 11.0625°C 111.125% 3 μg/m³ 4 μg/m³ 3.27V v255 52.1224 / 5.18607 23951 ttn.v3 - -111 -1.5 868.1MHz, SF9BW125, 4/5CR
- -120 -4.75 868.1MHz, SF9BW125, 4/5CR
2026-05-06 22:37:35 11.5°C 113.75% 2 μg/m³ 2 μg/m³ 3.27V v255 52.1224 / 5.18607 23948 ttn.v3 3.776km -107 -4.5 867.3MHz, SF9BW125, 4/5CR
2026-05-06 22:04:45 11.8125°C 113.25% 3 μg/m³ 3 μg/m³ 3.27V v255 52.1224 / 5.18607 23946 ttn.v3 - -114 -3.25 867.1MHz, SF9BW125, 4/5CR
- -121 -4.75 867.1MHz, SF9BW125, 4/5CR
2026-05-06 21:48:20 12.125°C 112.938% 3 μg/m³ 3 μg/m³ 3.27V v255 52.1224 / 5.18607 23945 ttn.v3 3.776km -105 -5.75 868.1MHz, SF9BW125, 4/5CR
- -123 -6.75 868.1MHz, SF9BW125, 4/5CR
2026-05-06 21:31:54 12.25°C 88.5% 3 μg/m³ 3 μg/m³ 3.27V v255 52.1224 / 5.18607 23944 ttn.v3 3.776km -108 -1.75 867.9MHz, SF9BW125, 4/5CR
- -113 -9.25 867.9MHz, SF9BW125, 4/5CR
- -126 -9.75 867.9MHz, SF9BW125, 4/5CR
2026-05-06 20:59:04 12.625°C 76.6875% 2 μg/m³ 2 μg/m³ 3.27V v255 52.1224 / 5.18607 23942 ttn.v3 - -111 -1.25 867.7MHz, SF9BW125, 4/5CR
3.776km -107 -4.25 867.7MHz, SF9BW125, 4/5CR
- -120 -5.25 867.7MHz, SF9BW125, 4/5CR
- -130 -13.5 867.7MHz, SF9BW125, 4/5CR
2026-05-06 20:09:47 12.6875°C 69.0625% 3 μg/m³ 3 μg/m³ 3.27V v255 52.1224 / 5.18607 23939 ttn.v3 - -120 -5.5 868.1MHz, SF9BW125, 4/5CR
3.776km -107 -5.75 868.1MHz, SF9BW125, 4/5CR
- -123 -7.25 868.1MHz, SF9BW125, 4/5CR
- -130 -13.75 868.1MHz, SF9BW125, 4/5CR
2026-05-06 19:36:56 13.1875°C 67.3125% 4 μg/m³ 4 μg/m³ 3.27V v255 52.1224 / 5.18607 23937 ttn.v3 - -107 -4.25 868.5MHz, SF9BW125, 4/5CR
- -120 -6.25 868.5MHz, SF9BW125, 4/5CR
- -129 -12 868.5MHz, SF9BW125, 4/5CR
2026-05-06 19:20:31 13.375°C 65.125% 2 μg/m³ 2 μg/m³ 3.27V v255 52.1224 / 5.18607 23936 ttn.v3 3.776km -105 -1 867.1MHz, SF9BW125, 4/5CR
- -111 -1.75 867.1MHz, SF9BW125, 4/5CR
- -121 -4.5 867.1MHz, SF9BW125, 4/5CR
2026-05-06 18:47:39 13.625°C 64.625% 4 μg/m³ 4 μg/m³ 3.27V v255 52.1224 / 5.18607 23934 ttn.v3 3.776km -104 2 867.9MHz, SF9BW125, 4/5CR
- -112 1.5 867.9MHz, SF9BW125, 4/5CR
- -122 -6.25 867.9MHz, SF9BW125, 4/5CR
2026-05-06 18:31:14 13.8125°C 62.1875% 4 μg/m³ 4 μg/m³ 3.27V v255 52.1224 / 5.18607 23933 ttn.v3 - -113 -2.75 868.1MHz, SF9BW125, 4/5CR
3.776km -104 -4.5 868.1MHz, SF9BW125, 4/5CR
2026-05-06 18:14:48 14.125°C 62.6875% 5 μg/m³ 5 μg/m³ 3.27V v255 52.1224 / 5.18607 23932 ttn.v3 - -132 -15.25 867.7MHz, SF9BW125, 4/5CR
2026-05-06 17:09:05 13.6875°C 62.1875% 4 μg/m³ 5 μg/m³ 3.27V v255 52.1224 / 5.18607 23928 ttn.v3 3.776km -101 -8.75 867.3MHz, SF9BW125, 4/5CR
2026-05-06 16:52:40 13.5625°C 64.3125% 3 μg/m³ 3 μg/m³ 3.27V v255 52.1224 / 5.18607 23927 ttn.v3 - -120 -4.25 868.1MHz, SF9BW125, 4/5CR
- -131 -14 868.1MHz, SF9BW125, 4/5CR
2026-05-06 16:36:14 13.8125°C 63.5625% 1 μg/m³ 1 μg/m³ 3.27V v255 52.1224 / 5.18607 23926 ttn.v3 - -108 6.25 867.1MHz, SF9BW125, 4/5CR
3.776km -108 -6 867.1MHz, SF9BW125, 4/5CR
- -124 -7.75 867.1MHz, SF9BW125, 4/5CR
2026-05-06 16:19:48 13.9375°C 63.8125% 1 μg/m³ 1 μg/m³ 3.27V v255 52.1224 / 5.18607 23925 ttn.v3 - -127 -12.25 868.5MHz, SF9BW125, 4/5CR
2026-05-06 16:03:22 13.0625°C 63.8125% 3 μg/m³ 4 μg/m³ 3.27V v255 52.1224 / 5.18607 23924 ttn.v3 3.776km -105 -4.5 867.9MHz, SF9BW125, 4/5CR
2026-05-06 15:46:57 13.3125°C 64.0625% 6 μg/m³ 6 μg/m³ 3.27V v255 52.1224 / 5.18607 23923 ttn.v3 - -106 -7.75 868.3MHz, SF9BW125, 4/5CR
2026-05-06 15:30:31 13.25°C 63.25% 2 μg/m³ 2 μg/m³ 3.27V v255 52.1224 / 5.18607 23922 ttn.v3 3.776km -107 -8.75 867.7MHz, SF9BW125, 4/5CR
2026-05-06 15:14:06 13.1875°C 63.5625% 3 μg/m³ 5 μg/m³ 3.27V v255 52.1224 / 5.18607 23921 ttn.v3 3.776km -99 -4 868.1MHz, SF9BW125, 4/5CR
- -112 -4.75 868.1MHz, SF9BW125, 4/5CR
2026-05-06 14:41:15 13.625°C 60.875% 1 μg/m³ 1 μg/m³ 3.27V v255 52.1224 / 5.18607 23919 ttn.v3 - -124 -11.25 868.5MHz, SF9BW125, 4/5CR
2026-05-06 14:24:49 13.6875°C 58.375% 2 μg/m³ 2 μg/m³ 3.27V v255 52.1224 / 5.18607 23918 ttn.v3 - -116 -1.25 867.3MHz, SF9BW125, 4/5CR
3.776km -102 -3.5 867.3MHz, SF9BW125, 4/5CR
2026-05-06 13:51:57 14.1875°C 60.9375% 1 μg/m³ 1 μg/m³ 3.27V v255 52.1224 / 5.18607 23916 ttn.v3 3.776km -107 -1.25 867.1MHz, SF9BW125, 4/5CR
- -119 -2.25 867.1MHz, SF9BW125, 4/5CR
- -118 -4.5 867.1MHz, SF9BW125, 4/5CR
2026-05-06 13:35:32 14.375°C 59.5625% 4 μg/m³ 4 μg/m³ 3.27V v255 52.1224 / 5.18607 23915 ttn.v3 - -109 0.75 868.1MHz, SF9BW125, 4/5CR
3.776km -103 -3 868.1MHz, SF9BW125, 4/5CR
- -120 -3.5 868.1MHz, SF9BW125, 4/5CR
2026-05-06 13:19:06 14.25°C 65.75% 8 μg/m³ 9 μg/m³ 3.27V v255 52.1224 / 5.18607 23914 ttn.v3 - -112 1 867.9MHz, SF9BW125, 4/5CR
3.776km -109 -12 867.9MHz, SF9BW125, 4/5CR
2026-05-06 12:29:48 15°C 62.875% 3 μg/m³ 3 μg/m³ 3.27V v255 52.1224 / 5.18607 23911 ttn.v3 - -109 -13 868.3MHz, SF9BW125, 4/5CR
- -119 -13.25 868.3MHz, SF9BW125, 4/5CR
2026-05-06 11:56:56 15.9375°C 59.6875% 4 μg/m³ 4 μg/m³ 3.27V v255 52.1224 / 5.18607 23909 ttn.v3 - -109 -1.5 868.1MHz, SF9BW125, 4/5CR
2026-05-06 11:24:03 17°C 108.438% 4 μg/m³ 4 μg/m³ 3.27V v255 52.1224 / 5.18607 23907 ttn.v3 - -120 -9.25 868.5MHz, SF9BW125, 4/5CR
2026-05-06 11:07:37 16.625°C 105.625% 4 μg/m³ 4 μg/m³ 3.27V v255 52.1224 / 5.18607 23906 ttn.v3 - -108 5 867.1MHz, SF9BW125, 4/5CR
- -119 -2 867.1MHz, SF9BW125, 4/5CR
3.776km -109 -2 867.1MHz, SF9BW125, 4/5CR
2026-05-06 10:51:10 16.5°C 101.812% 6 μg/m³ 6 μg/m³ 3.27V v255 52.1224 / 5.18607 23905 ttn.v3 - -119 -7.75 868.3MHz, SF9BW125, 4/5CR
2026-05-06 10:34:44 14.3125°C 88.9375% 2 μg/m³ 2 μg/m³ 3.27V v255 52.1224 / 5.18607 23904 ttn.v3 - -121 -4.25 867.9MHz, SF9BW125, 4/5CR
- -112 -4.75 867.9MHz, SF9BW125, 4/5CR
2026-05-06 10:18:18 14°C 112.438% 4 μg/m³ 4 μg/m³ 3.27V v255 52.1224 / 5.18607 23903 ttn.v3 - -120 -5.25 868.1MHz, SF9BW125, 4/5CR
- -121 -10.75 868.1MHz, SF9BW125, 4/5CR
- -131 -14.75 868.1MHz, SF9BW125, 4/5CR
2026-05-06 10:01:53 13.1875°C 85.875% 8 μg/m³ 8 μg/m³ 3.27V v255 52.1224 / 5.18607 23902 ttn.v3 - -117 -2.5 867.7MHz, SF9BW125, 4/5CR
- -116 -5 867.7MHz, SF9BW125, 4/5CR
3.776km -105 -6.25 867.7MHz, SF9BW125, 4/5CR
2026-05-06 09:45:27 12.9375°C 77.0625% 8 μg/m³ 9 μg/m³ 3.27V v255 52.1224 / 5.18607 23901 ttn.v3 - -124 -9.75 868.5MHz, SF9BW125, 4/5CR
2026-05-06 09:12:37 12.5625°C 50.25% 3 μg/m³ 3 μg/m³ 3.27V v255 52.1224 / 5.18607 23899 ttn.v3 - -118 -7 868.3MHz, SF9BW125, 4/5CR
2026-05-06 08:56:11 12.3125°C 50.0625% 7 μg/m³ 8 μg/m³ 3.27V v255 52.1224 / 5.18607 23898 ttn.v3 3.776km -103 -5.75 867.3MHz, SF9BW125, 4/5CR
- -118 -7.5 867.3MHz, SF9BW125, 4/5CR
- -125 -9 867.3MHz, SF9BW125, 4/5CR
2026-05-06 08:39:46 11.75°C 39.25% 4 μg/m³ 4 μg/m³ 3.27V v255 52.1224 / 5.18607 23897 ttn.v3 - -123 -6.5 868.1MHz, SF9BW125, 4/5CR
2026-05-06 08:06:56 11.0625°C 39.1875% 4 μg/m³ 4 μg/m³ 3.27V v255 52.1224 / 5.18607 23895 ttn.v3 - -121 -6.5 868.5MHz, SF9BW125, 4/5CR
2026-05-06 07:50:31 10.75°C 39.125% 9 μg/m³ 12 μg/m³ 3.27V v255 52.1224 / 5.18607 23894 ttn.v3 3.776km -105 -2.75 867.9MHz, SF9BW125, 4/5CR
- -115 -5.75 867.9MHz, SF9BW125, 4/5CR
- -129 -12.75 867.9MHz, SF9BW125, 4/5CR
2026-05-06 07:17:41 10.25°C 39.0625% 3 μg/m³ 3 μg/m³ 3.27V v255 52.1224 / 5.18607 23892 ttn.v3 3.776km -105 1.25 867.7MHz, SF9BW125, 4/5CR
- -111 -2.75 867.7MHz, SF9BW125, 4/5CR
- -128 -12.75 867.7MHz, SF9BW125, 4/5CR
2026-05-06 07:01:17 10.0625°C 39.0625% 4 μg/m³ 5 μg/m³ 3.27V v255 52.1224 / 5.18607 23891 ttn.v3 3.776km -104 -3 868.1MHz, SF9BW125, 4/5CR
- -125 -10.25 868.1MHz, SF9BW125, 4/5CR
- -118 -10.25 868.1MHz, SF9BW125, 4/5CR
- -130 -14.5 868.1MHz, SF9BW125, 4/5CR
2026-05-06 06:28:27 9.8125°C 39.0625% 8 μg/m³ 10 μg/m³ 3.27V v255 52.1224 / 5.18607 23889 ttn.v3 - -120 -5.5 868.5MHz, SF9BW125, 4/5CR
- -128 -12 868.5MHz, SF9BW125, 4/5CR
- -117 -14.25 868.5MHz, SF9BW125, 4/5CR
2026-05-06 05:55:38 9.875°C 39.0625% 3 μg/m³ 3 μg/m³ 3.27V v255 52.1224 / 5.18607 23887 ttn.v3 - -129 -13.25 868.3MHz, SF9BW125, 4/5CR
2026-05-06 05:39:13 9.8125°C 39.0625% 7 μg/m³ 8 μg/m³ 3.27V v255 52.1224 / 5.18607 23886 ttn.v3 - -121 -7.25 867.1MHz, SF9BW125, 4/5CR
2026-05-06 05:22:49 9.75°C 39.0625% 9 μg/m³ 12 μg/m³ 3.27V v255 52.1224 / 5.18607 23885 ttn.v3 - -125 -10.75 868.1MHz, SF9BW125, 4/5CR
2026-05-06 05:06:24 9.6875°C 39% 6 μg/m³ 6 μg/m³ 3.27V v255 52.1224 / 5.18607 23884 ttn.v3 3.776km -107 0.5 867.9MHz, SF9BW125, 4/5CR
- -113 -0.5 867.9MHz, SF9BW125, 4/5CR
- -123 -7.25 867.9MHz, SF9BW125, 4/5CR
2026-05-06 04:49:59 9.625°C 39% 8 μg/m³ 8 μg/m³ 3.27V v255 52.1224 / 5.18607 23883 ttn.v3 - -115 -9.5 868.5MHz, SF9BW125, 4/5CR
2026-05-06 04:33:34 9.625°C 39% 11 μg/m³ 12 μg/m³ 3.27V v255 52.1224 / 5.18607 23882 ttn.v3 - -113 -0.75 867.7MHz, SF9BW125, 4/5CR
3.776km -104 -4 867.7MHz, SF9BW125, 4/5CR
- -120 -4.5 867.7MHz, SF9BW125, 4/5CR
2026-05-06 03:44:20 9.9375°C 39.0625% 8 μg/m³ 9 μg/m³ 3.27V v255 52.1224 / 5.18607 23879 ttn.v3 - -126 -9.75 868.1MHz, SF9BW125, 4/5CR
2026-05-06 03:27:56 10°C 39.0625% 12 μg/m³ 12 μg/m³ 3.27V v255 52.1224 / 5.18607 23878 ttn.v3 3.776km -105 -1 867.3MHz, SF9BW125, 4/5CR
2026-05-06 03:11:31 10.0625°C 39.0625% 11 μg/m³ 13 μg/m³ 3.27V v255 52.1224 / 5.18607 23877 ttn.v3 - -108 -5.25 868.5MHz, SF9BW125, 4/5CR
- -126 -11.5 868.5MHz, SF9BW125, 4/5CR
- -130 -14.25 868.5MHz, SF9BW125, 4/5CR
2026-05-06 02:55:06 10.0625°C 39.0625% 12 μg/m³ 14 μg/m³ 3.28V v255 52.1224 / 5.18607 23876 ttn.v3 3.776km -105 -4 867.1MHz, SF9BW125, 4/5CR
- -117 -7 867.1MHz, SF9BW125, 4/5CR
- -124 -8.25 867.1MHz, SF9BW125, 4/5CR
2026-05-06 02:22:17 10.0625°C 39.0625% 10 μg/m³ 11 μg/m³ 3.27V v255 52.1224 / 5.18607 23874 ttn.v3 - -110 1.75 867.9MHz, SF9BW125, 4/5CR
3.776km -109 -0.5 867.9MHz, SF9BW125, 4/5CR
- -129 -11.75 867.9MHz, SF9BW125, 4/5CR
- -131 -15 867.9MHz, SF9BW125, 4/5CR
2026-05-06 02:05:52 9.9375°C 39.0625% 14 μg/m³ 17 μg/m³ 3.27V v255 52.1224 / 5.18607 23873 ttn.v3 - -115 -6.25 868.1MHz, SF9BW125, 4/5CR
2026-05-06 01:49:27 10°C 39.0625% 14 μg/m³ 14 μg/m³ 3.28V v255 52.1224 / 5.18607 23872 ttn.v3 3.776km -104 -6.25 867.7MHz, SF9BW125, 4/5CR
- -123 -6.75 867.7MHz, SF9BW125, 4/5CR
- -125 -9.5 867.7MHz, SF9BW125, 4/5CR
2026-05-06 01:33:03 10.0625°C 39.0625% 12 μg/m³ 13 μg/m³ 3.27V v255 52.1224 / 5.18607 23871 ttn.v3 - -123 -8.75 868.5MHz, SF9BW125, 4/5CR
- -130 -14.25 868.5MHz, SF9BW125, 4/5CR
2026-05-06 01:16:38 10.0625°C 39.0625% 7 μg/m³ 7 μg/m³ 3.27V v255 52.1224 / 5.18607 23870 ttn.v3 - -121 -7.75 867.5MHz, SF9BW125, 4/5CR
- -107 -11.25 867.5MHz, SF9BW125, 4/5CR
2026-05-06 01:01:16 10°C 39.0625% 11 μg/m³ 11 μg/m³ 3.27V v255 52.1224 / 5.18607 23869 ttn.v3 - -121 -11.25 868.3MHz, SF12BW125, 4/5CR
3.776km -91 -17.75 868.3MHz, SF12BW125, 4/5CR
- -117 -19 868.3MHz, SF12BW125, 4/5CR
2026-05-06 00:43:54 9.9375°C 39.0625% 8 μg/m³ 8 μg/m³ 3.27V v255 No position 23868 ttn.v3 - -101 -1.5 867.3MHz, SF9BW125, 4/5CR
- -118 -14.25 867.3MHz, SF9BW125, 4/5CR
2026-05-06 00:27:29 10°C 39.0625% 11 μg/m³ 12 μg/m³ 3.27V v255 No position 23867 ttn.v3 - -110 -3 868.1MHz, SF9BW125, 4/5CR
- -124 -9.5 868.1MHz, SF9BW125, 4/5CR
2026-05-06 00:11:04 10°C 39.0625% 8 μg/m³ 8 μg/m³ 3.27V v255 No position 23866 ttn.v3 - -104 -5.5 867.1MHz, SF9BW125, 4/5CR
- -124 -7.25 867.1MHz, SF9BW125, 4/5CR
- -115 -8.75 867.1MHz, SF9BW125, 4/5CR
2026-05-05 23:54:40 9.9375°C 39.0625% 9 μg/m³ 9 μg/m³ 3.28V v255 No position 23865 ttn.v3 - -115 -13 868.5MHz, SF9BW125, 4/5CR
2026-05-05 23:38:15 9.875°C 39.0625% 7 μg/m³ 7 μg/m³ 3.27V v255 No position 23864 ttn.v3 - -103 -5.5 867.9MHz, SF9BW125, 4/5CR
2026-05-05 23:05:25 10.0625°C 39.0625% 5 μg/m³ 5 μg/m³ 3.27V v255 No position 23862 ttn.v3 - -105 -0.5 867.7MHz, SF9BW125, 4/5CR
- -119 -5.25 867.7MHz, SF9BW125, 4/5CR
2026-05-05 22:49:01 10.3125°C 39.0625% 6 μg/m³ 6 μg/m³ 3.27V v255 No position 23861 ttn.v3 - -112 -4.75 868.1MHz, SF9BW125, 4/5CR
- -129 -14.25 868.1MHz, SF9BW125, 4/5CR
2026-05-05 22:16:11 11.0625°C 50% 6 μg/m³ 6 μg/m³ 3.28V v255 No position 23859 ttn.v3 - -129 -14.25 868.5MHz, SF9BW125, 4/5CR
2026-05-05 21:59:46 11.25°C 39.1875% 7 μg/m³ 8 μg/m³ 3.27V v255 No position 23858 ttn.v3 - -105 -1.75 867.3MHz, SF9BW125, 4/5CR
- -123 -8.25 867.3MHz, SF9BW125, 4/5CR
2026-05-05 21:43:21 11.4375°C 39.1875% 11 μg/m³ 11 μg/m³ 3.27V v255 No position 23857 ttn.v3 - -125 -11.75 868.3MHz, SF9BW125, 4/5CR
- -113 -13.75 868.3MHz, SF9BW125, 4/5CR
2026-05-05 21:26:56 11.5°C 51.9375% 7 μg/m³ 7 μg/m³ 3.27V v255 No position 23856 ttn.v3 - -115 0.25 867.1MHz, SF9BW125, 4/5CR
- -109 -1 867.1MHz, SF9BW125, 4/5CR
- -121 -3.75 867.1MHz, SF9BW125, 4/5CR
2026-05-05 21:10:31 11.75°C 56% 14 μg/m³ 17 μg/m³ 3.27V v255 No position 23855 ttn.v3 - -111 -6 868.1MHz, SF9BW125, 4/5CR
- -123 -9.75 868.1MHz, SF9BW125, 4/5CR
2026-05-05 20:54:05 11.875°C 63.625% 8 μg/m³ 8 μg/m³ 3.27V v255 No position 23854 ttn.v3 - -108 -2.5 867.9MHz, SF9BW125, 4/5CR
- -114 -2.75 867.9MHz, SF9BW125, 4/5CR
- -123 -6.5 867.9MHz, SF9BW125, 4/5CR
2026-05-05 20:21:15 12.1875°C 63.3125% 6 μg/m³ 6 μg/m³ 3.27V v255 No position 23852 ttn.v3 - -108 1.75 867.7MHz, SF9BW125, 4/5CR
- -104 -2.5 867.7MHz, SF9BW125, 4/5CR
- -124 -8.25 867.7MHz, SF9BW125, 4/5CR
2026-05-05 19:48:24 13.0625°C 78.25% 8 μg/m³ 8 μg/m³ 3.27V v255 No position 23850 ttn.v3 - -110 -12.5 867.5MHz, SF9BW125, 4/5CR
2026-05-05 19:31:58 13.3125°C 75.25% 12 μg/m³ 13 μg/m³ 3.27V v255 No position 23849 ttn.v3 - -99 -5 868.1MHz, SF9BW125, 4/5CR
- -129 -13 868.1MHz, SF9BW125, 4/5CR
2026-05-05 19:15:33 13.8125°C 89.4375% 13 μg/m³ 14 μg/m³ 3.27V v255 No position 23848 ttn.v3 - -113 -1 867.3MHz, SF9BW125, 4/5CR
2026-05-05 18:59:07 14.1875°C 111.5% 7 μg/m³ 7 μg/m³ 3.27V v255 No position 23847 ttn.v3 - -122 -6.75 868.5MHz, SF9BW125, 4/5CR
2026-05-05 18:09:49 14.8125°C 0.5% 7 μg/m³ 8 μg/m³ 3.27V v255 No position 23844 ttn.v3 - -104 -9 867.9MHz, SF9BW125, 4/5CR
2026-05-05 17:53:23 15.0625°C 5.625% 7 μg/m³ 8 μg/m³ 3.27V v255 No position 23843 ttn.v3 - -119 -4.75 868.1MHz, SF9BW125, 4/5CR
2026-05-05 17:36:57 15.0625°C 15.9375% 11 μg/m³ 11 μg/m³ 3.27V v255 No position 23842 ttn.v3 - -123 -8.5 867.7MHz, SF9BW125, 4/5CR
2026-05-05 17:20:31 15.25°C 49.875% 9 μg/m³ 10 μg/m³ 3.27V v255 No position 23841 ttn.v3 - -130 -14.25 868.5MHz, SF9BW125, 4/5CR
2026-05-05 16:47:39 15.125°C 47.5625% 12 μg/m³ 12 μg/m³ 3.27V v255 No position 23839 ttn.v3 - -121 -10 868.3MHz, SF9BW125, 4/5CR
- -131 -14.75 868.3MHz, SF9BW125, 4/5CR
2026-05-05 16:31:13 15.5°C 22.1875% 11 μg/m³ 11 μg/m³ 3.27V v255 No position 23838 ttn.v3 - -111 1 867.3MHz, SF9BW125, 4/5CR
- -129 -13.25 867.3MHz, SF9BW125, 4/5CR
2026-05-05 16:14:47 15.6875°C 70.3125% 10 μg/m³ 10 μg/m³ 3.27V v255 No position 23837 ttn.v3 - -111 -7.25 868.1MHz, SF9BW125, 4/5CR
2026-05-05 15:58:21 15.5625°C 64.625% 12 μg/m³ 13 μg/m³ 3.27V v255 No position 23836 ttn.v3 - -125 -11 867.1MHz, SF9BW125, 4/5CR
2026-05-05 15:41:55 15.4375°C -0.375% 9 μg/m³ 9 μg/m³ 3.27V v255 No position 23835 ttn.v3 - -105 0 868.5MHz, SF9BW125, 4/5CR
- -129 -12.75 868.5MHz, SF9BW125, 4/5CR
2026-05-05 15:25:28 15.5625°C 36.25% 11 μg/m³ 12 μg/m³ 3.27V v255 No position 23834 ttn.v3 - -105 6.25 867.9MHz, SF9BW125, 4/5CR
- -129 -14.25 867.9MHz, SF9BW125, 4/5CR
2026-05-05 14:52:36 14.4375°C 110.5% 15 μg/m³ 17 μg/m³ 3.27V v255 No position 23832 ttn.v3 - -121 -5.25 867.7MHz, SF9BW125, 4/5CR
- -117 -5.75 867.7MHz, SF9BW125, 4/5CR
- -102 -7 867.7MHz, SF9BW125, 4/5CR
2026-05-05 14:36:10 14.3125°C 90.9375% 13 μg/m³ 14 μg/m³ 3.27V v255 No position 23831 ttn.v3 - -110 -5.5 868.1MHz, SF9BW125, 4/5CR
- -121 -8.5 868.1MHz, SF9BW125, 4/5CR
2026-05-05 14:19:45 14.375°C 74.3125% 11 μg/m³ 12 μg/m³ 3.27V v255 No position 23830 ttn.v3 - -104 -14.25 867.5MHz, SF9BW125, 4/5CR
2026-05-05 14:03:19 14.1875°C 47.8125% 10 μg/m³ 11 μg/m³ 3.27V v255 No position 23829 ttn.v3 - -110 -13 868.5MHz, SF9BW125, 4/5CR
- -129 -13.75 868.5MHz, SF9BW125, 4/5CR
2026-05-05 13:14:03 11.875°C 39.25% 14 μg/m³ 14 μg/m³ 3.27V v255 No position 23826 ttn.v3 - -109 -3 867.1MHz, SF9BW125, 4/5CR
2026-05-05 12:57:38 11.6875°C 39.25% 18 μg/m³ 18 μg/m³ 3.27V v255 No position 23825 ttn.v3 - -122 -9.5 868.1MHz, SF9BW125, 4/5CR
2026-05-05 12:41:12 11.5625°C 39.1875% 13 μg/m³ 14 μg/m³ 3.27V v255 No position 23824 ttn.v3 - -104 0.25 867.9MHz, SF9BW125, 4/5CR
- -119 -4 867.9MHz, SF9BW125, 4/5CR
2026-05-05 12:24:47 11.5625°C 39.1875% 11 μg/m³ 11 μg/m³ 3.27V v255 No position 23823 ttn.v3 - -128 -11.75 868.5MHz, SF9BW125, 4/5CR
2026-05-05 11:35:32 11.125°C 39.1875% 8 μg/m³ 8 μg/m³ 3.27V v255 No position 23820 ttn.v3 - -107 -8 867.5MHz, SF9BW125, 4/5CR
- -120 -10 867.5MHz, SF9BW125, 4/5CR
2026-05-05 11:19:07 11°C 39.1875% 9 μg/m³ 10 μg/m³ 3.27V v255 No position 23819 ttn.v3 - -108 2.25 868.1MHz, SF9BW125, 4/5CR
- -119 -6 868.1MHz, SF9BW125, 4/5CR
2026-05-05 10:46:17 10.8125°C 39.125% 10 μg/m³ 10 μg/m³ 3.27V v255 No position 23817 ttn.v3 - -119 -5.75 868.5MHz, SF9BW125, 4/5CR
- -111 -7.25 868.5MHz, SF9BW125, 4/5CR
- -131 -15 868.5MHz, SF9BW125, 4/5CR
2026-05-05 10:29:52 10.875°C 39.125% 6 μg/m³ 6 μg/m³ 3.27V v255 No position 23816 ttn.v3 - -111 -1.25 867.1MHz, SF9BW125, 4/5CR
- -109 -2.25 867.1MHz, SF9BW125, 4/5CR
- -129 -13.5 867.1MHz, SF9BW125, 4/5CR
2026-05-05 09:57:02 10.6875°C 39.125% 13 μg/m³ 14 μg/m³ 3.27V v255 No position 23814 ttn.v3 - -103 4.75 867.9MHz, SF9BW125, 4/5CR
- -110 -5 867.9MHz, SF9BW125, 4/5CR
- -122 -7.25 867.9MHz, SF9BW125, 4/5CR
2026-05-05 09:24:13 10.1875°C 39.0625% 19 μg/m³ 19 μg/m³ 3.27V v255 No position 23812 ttn.v3 - -117 -2 867.7MHz, SF9BW125, 4/5CR
- -131 -14.5 867.7MHz, SF9BW125, 4/5CR
2026-05-05 09:07:48 10.25°C 39.0625% 15 μg/m³ 15 μg/m³ 3.27V v255 No position 23811 ttn.v3 - -107 -3.25 868.5MHz, SF9BW125, 4/5CR
- -121 -6.75 868.5MHz, SF9BW125, 4/5CR
2026-05-05 08:51:23 9.9375°C 39.0625% 16 μg/m³ 17 μg/m³ 3.27V v255 No position 23810 ttn.v3 - -116 -6.75 867.5MHz, SF9BW125, 4/5CR
- -87 -12.75 867.5MHz, SF9BW125, 4/5CR
2026-05-05 08:34:58 9.6875°C 39% 20 μg/m³ 21 μg/m³ 3.27V v255 No position 23809 ttn.v3 - -129 -13 868.3MHz, SF9BW125, 4/5CR
2026-05-05 08:18:34 9.625°C 39% 27 μg/m³ 28 μg/m³ 3.28V v255 No position 23808 ttn.v3 - -105 3 867.3MHz, SF9BW125, 4/5CR
- -112 0.25 867.3MHz, SF9BW125, 4/5CR
- -121 -4.5 867.3MHz, SF9BW125, 4/5CR
2026-05-05 08:02:09 9.5°C 39% 22 μg/m³ 23 μg/m³ 3.27V v255 No position 23807 ttn.v3 - -119 -4 868.1MHz, SF9BW125, 4/5CR
2026-05-05 07:45:44 9.4375°C 39% 23 μg/m³ 25 μg/m³ 3.27V v255 No position 23806 ttn.v3 - -103 -3.75 867.1MHz, SF9BW125, 4/5CR
- -124 -8 867.1MHz, SF9BW125, 4/5CR
- -111 -9.75 867.1MHz, SF9BW125, 4/5CR
2026-05-05 07:29:20 9.5°C 39% 25 μg/m³ 25 μg/m³ 3.27V v255 No position 23805 ttn.v3 - -114 -13 868.5MHz, SF9BW125, 4/5CR
2026-05-05 07:12:55 9.5625°C 39% 18 μg/m³ 18 μg/m³ 3.28V v255 No position 23804 ttn.v3 - -109 -0.5 867.9MHz, SF9BW125, 4/5CR
- -103 -5.75 867.9MHz, SF9BW125, 4/5CR
- -130 -13 867.9MHz, SF9BW125, 4/5CR
2026-05-05 06:56:30 9.6875°C 39% 20 μg/m³ 21 μg/m³ 3.27V v255 No position 23803 ttn.v3 - -111 -14 868.3MHz, SF9BW125, 4/5CR
2026-05-05 06:40:06 9.625°C 39% 18 μg/m³ 18 μg/m³ 3.27V v255 No position 23802 ttn.v3 - -103 1.25 867.7MHz, SF9BW125, 4/5CR
- -108 -6.75 867.7MHz, SF9BW125, 4/5CR
2026-05-05 06:23:41 9.625°C 39% 21 μg/m³ 21 μg/m³ 3.27V v255 No position 23801 ttn.v3 - -109 -3.25 868.1MHz, SF9BW125, 4/5CR
- -128 -12 868.1MHz, SF9BW125, 4/5CR
- -127 -14 868.1MHz, SF9BW125, 4/5CR
2026-05-05 05:50:52 9.9375°C 39.0625% 18 μg/m³ 20 μg/m³ 3.28V v255 No position 23799 ttn.v3 - -111 -8.75 868.5MHz, SF9BW125, 4/5CR
- -128 -13.25 868.5MHz, SF9BW125, 4/5CR
- -129 -14 868.5MHz, SF9BW125, 4/5CR
2026-05-05 05:18:02 10.125°C 39.0625% 21 μg/m³ 24 μg/m³ 3.27V v255 No position 23797 ttn.v3 - -121 -12.75 868.3MHz, SF9BW125, 4/5CR
- -128 -12.75 868.3MHz, SF9BW125, 4/5CR
2026-05-05 04:45:13 10.25°C 39.0625% 21 μg/m³ 22 μg/m³ 3.27V v255 No position 23795 ttn.v3 - -114 -4.25 868.1MHz, SF9BW125, 4/5CR
2026-05-05 04:28:48 10.5°C 39.125% 17 μg/m³ 17 μg/m³ 3.27V v255 No position 23794 ttn.v3 - -109 -0.5 867.9MHz, SF9BW125, 4/5CR
- -111 -1 867.9MHz, SF9BW125, 4/5CR
2026-05-05 03:06:43 11°C 39.1875% 17 μg/m³ 17 μg/m³ 3.27V v255 No position 23789 ttn.v3 - -123 -7.75 868.1MHz, SF9BW125, 4/5CR
2026-05-05 02:50:18 11.0625°C 39.1875% 15 μg/m³ 15 μg/m³ 3.27V v255 No position 23788 ttn.v3 - -117 -5.25 867.3MHz, SF9BW125, 4/5CR
2026-05-05 02:33:53 11.25°C 39.1875% 17 μg/m³ 19 μg/m³ 3.27V v255 No position 23787 ttn.v3 - -128 -13.5 868.5MHz, SF9BW125, 4/5CR
2026-05-05 02:17:28 11.375°C 39.1875% 22 μg/m³ 23 μg/m³ 3.27V v255 No position 23786 ttn.v3 - -116 -2 867.1MHz, SF9BW125, 4/5CR
- -106 -8.25 867.1MHz, SF9BW125, 4/5CR
- -124 -8.5 867.1MHz, SF9BW125, 4/5CR
- -129 -13.5 867.1MHz, SF9BW125, 4/5CR
2026-05-05 02:01:03 11.625°C 39.25% 16 μg/m³ 16 μg/m³ 3.27V v255 No position 23785 ttn.v3 - -117 -3.5 868.3MHz, SF9BW125, 4/5CR
- -129 -13.25 868.3MHz, SF9BW125, 4/5CR
2026-05-05 01:44:37 11.9375°C 39.25% 20 μg/m³ 20 μg/m³ 3.27V v255 No position 23784 ttn.v3 - -107 -0.75 867.9MHz, SF9BW125, 4/5CR
- -115 -3.5 867.9MHz, SF9BW125, 4/5CR
- -132 -15 867.9MHz, SF9BW125, 4/5CR
2026-05-05 01:28:12 12.125°C 39.3125% 19 μg/m³ 19 μg/m³ 3.27V v255 No position 23783 ttn.v3 - -117 -1.5 868.1MHz, SF9BW125, 4/5CR
- -130 -12.75 868.1MHz, SF9BW125, 4/5CR
2026-05-05 01:11:47 12.3125°C 39.3125% 25 μg/m³ 26 μg/m³ 3.27V v255 No position 23782 ttn.v3 - -114 -3 867.7MHz, SF9BW125, 4/5CR
- -121 -6.25 867.7MHz, SF9BW125, 4/5CR
2026-05-05 00:55:22 12.375°C 39.3125% 22 μg/m³ 25 μg/m³ 3.27V v255 No position 23781 ttn.v3 - -124 -9.75 868.5MHz, SF9BW125, 4/5CR
- -130 -14 868.5MHz, SF9BW125, 4/5CR
- -119 -15.25 868.5MHz, SF9BW125, 4/5CR
2026-05-05 00:06:05 12.8125°C 39.375% 24 μg/m³ 25 μg/m³ 3.27V v255 No position 23778 ttn.v3 - -112 0.75 867.3MHz, SF9BW125, 4/5CR
- -101 -2 867.3MHz, SF9BW125, 4/5CR
- -120 -3.75 867.3MHz, SF9BW125, 4/5CR
2026-05-04 23:49:40 12.9375°C 39.375% 29 μg/m³ 30 μg/m³ 3.27V v255 No position 23777 ttn.v3 - -120 -3.75 868.1MHz, SF9BW125, 4/5CR
- -129 -12 868.1MHz, SF9BW125, 4/5CR
2026-05-04 23:16:49 13.1875°C 39.375% 26 μg/m³ 27 μg/m³ 3.27V v255 No position 23775 ttn.v3 - -125 -11.25 868.5MHz, SF9BW125, 4/5CR
- -131 -15 868.5MHz, SF9BW125, 4/5CR
2026-05-04 23:00:23 13.25°C 39.375% 24 μg/m³ 26 μg/m³ 3.27V v255 No position 23774 ttn.v3 - -109 1.25 867.9MHz, SF9BW125, 4/5CR
- -123 -9.5 867.9MHz, SF9BW125, 4/5CR
2026-05-04 22:46:11 13.25°C 39.375% 20 μg/m³ 21 μg/m³ 3.27V v255 No position 23773 ttn.v3 - -123 -13.25 868.3MHz, SF12BW125, 4/5CR
- -130 -16 868.3MHz, SF12BW125, 4/5CR
2026-05-04 22:27:44 13.4375°C 39.4375% 25 μg/m³ 25 μg/m³ 3.27V v255 52.1223 / 5.18625 23772 ttn.v3 3.775km -107 -2.25 867.7MHz, SF9BW125, 4/5CR
- -129 -12.75 867.7MHz, SF9BW125, 4/5CR
2026-05-04 22:11:19 13.625°C 39.4375% 27 μg/m³ 27 μg/m³ 3.27V v255 52.1223 / 5.18625 23771 ttn.v3 - -121 -5.25 868.1MHz, SF9BW125, 4/5CR
- -118 -7.5 868.1MHz, SF9BW125, 4/5CR
3.775km -107 -7.5 868.1MHz, SF9BW125, 4/5CR
- -130 -13.75 868.1MHz, SF9BW125, 4/5CR
2026-05-04 21:38:27 13.9375°C 39.5% 22 μg/m³ 23 μg/m³ 3.27V v255 52.1223 / 5.18625 23769 ttn.v3 - -113 -8.5 868.5MHz, SF9BW125, 4/5CR
- -125 -10.75 868.5MHz, SF9BW125, 4/5CR
- -128 -12 868.5MHz, SF9BW125, 4/5CR
2026-05-04 21:22:01 14.1875°C 39.5% 30 μg/m³ 31 μg/m³ 3.27V v255 52.1223 / 5.18625 23768 ttn.v3 3.775km -107 -2.25 867.3MHz, SF9BW125, 4/5CR
- -111 -3.5 867.3MHz, SF9BW125, 4/5CR
- -122 -6.5 867.3MHz, SF9BW125, 4/5CR
2026-05-04 21:05:36 14.5625°C 39.5625% 21 μg/m³ 22 μg/m³ 3.27V v255 52.1223 / 5.18625 23767 ttn.v3 - -128 -12.75 868.3MHz, SF9BW125, 4/5CR
2026-05-04 20:49:10 14.875°C 39.5625% 23 μg/m³ 23 μg/m³ 3.27V v255 52.1223 / 5.18625 23766 ttn.v3 3.775km -105 1 867.1MHz, SF9BW125, 4/5CR
2026-05-04 20:32:44 15.0625°C 39.5625% 24 μg/m³ 24 μg/m³ 3.27V v255 52.1223 / 5.18625 23765 ttn.v3 - -110 2 868.1MHz, SF9BW125, 4/5CR
3.775km -107 -3.75 868.1MHz, SF9BW125, 4/5CR
- -125 -9.5 868.1MHz, SF9BW125, 4/5CR
2026-05-04 20:16:18 15.375°C 39.625% 20 μg/m³ 20 μg/m³ 3.27V v255 52.1223 / 5.18625 23764 ttn.v3 - -112 1.75 867.9MHz, SF9BW125, 4/5CR
3.775km -109 1.5 867.9MHz, SF9BW125, 4/5CR
- -127 -10.25 867.9MHz, SF9BW125, 4/5CR
- -127 -11.25 867.9MHz, SF9BW125, 4/5CR
2026-05-04 19:59:52 15.625°C 39.625% 21 μg/m³ 23 μg/m³ 3.27V v255 52.1223 / 5.18625 23763 ttn.v3 - -111 -7 868.5MHz, SF9BW125, 4/5CR
- -130 -13.25 868.5MHz, SF9BW125, 4/5CR
2026-05-04 19:43:25 15.875°C 39.6875% 28 μg/m³ 29 μg/m³ 3.27V v255 52.1223 / 5.18625 23762 ttn.v3 3.775km -107 -1 867.7MHz, SF9BW125, 4/5CR
2026-05-04 18:54:06 16.8125°C 39.75% 29 μg/m³ 29 μg/m³ 3.27V v255 52.1223 / 5.18625 23759 ttn.v3 - -121 -6.25 868.1MHz, SF9BW125, 4/5CR
2026-05-04 18:37:40 16.875°C 39.8125% 36 μg/m³ 37 μg/m³ 3.27V v255 52.1223 / 5.18625 23758 ttn.v3 3.775km -104 1.25 867.3MHz, SF9BW125, 4/5CR
- -116 -0.75 867.3MHz, SF9BW125, 4/5CR
- -123 -7 867.3MHz, SF9BW125, 4/5CR
2026-05-04 18:21:13 17.1875°C 39.8125% 38 μg/m³ 38 μg/m³ 3.27V v255 52.1223 / 5.18625 23757 ttn.v3 - -111 -6.75 868.5MHz, SF9BW125, 4/5CR
- -128 -14 868.5MHz, SF9BW125, 4/5CR
- -130 -15 868.5MHz, SF9BW125, 4/5CR
2026-05-04 18:04:46 17.3125°C 39.8125% 38 μg/m³ 39 μg/m³ 3.27V v255 52.1223 / 5.18625 23756 ttn.v3 - -118 -2.25 867.1MHz, SF9BW125, 4/5CR
2026-05-04 17:48:20 17.125°C 39.8125% 41 μg/m³ 42 μg/m³ 3.27V v255 52.1223 / 5.18625 23755 ttn.v3 - -130 -14 868.3MHz, SF9BW125, 4/5CR
2026-05-04 17:31:53 17.6875°C 39.875% 39 μg/m³ 42 μg/m³ 3.27V v255 52.1223 / 5.18625 23754 ttn.v3 - -114 -1 867.9MHz, SF9BW125, 4/5CR
3.775km -110 -6.5 867.9MHz, SF9BW125, 4/5CR
2026-05-04 17:15:26 18.625°C 39.9375% 45 μg/m³ 46 μg/m³ 3.27V v255 52.1223 / 5.18625 23753 ttn.v3 3.775km -101 -9.75 868.1MHz, SF9BW125, 4/5CR
2026-05-04 16:58:59 18.4375°C 39.9375% 35 μg/m³ 37 μg/m³ 3.27V v255 52.1223 / 5.18625 23752 ttn.v3 3.775km -105 -9.25 867.7MHz, SF9BW125, 4/5CR
2026-05-04 16:09:39 18.75°C 48.25% 44 μg/m³ 45 μg/m³ 3.27V v255 52.1223 / 5.18625 23749 ttn.v3 - -130 -14.75 868.3MHz, SF9BW125, 4/5CR
2026-05-04 15:53:11 19.1875°C 62.1875% 27 μg/m³ 28 μg/m³ 3.27V v255 52.1223 / 5.18625 23748 ttn.v3 - -113 -1.75 867.3MHz, SF9BW125, 4/5CR
3.775km -103 -2.25 867.3MHz, SF9BW125, 4/5CR
- -126 -10.25 867.3MHz, SF9BW125, 4/5CR
2026-05-04 15:36:44 19.75°C 54.9375% 31 μg/m³ 32 μg/m³ 3.27V v255 52.1223 / 5.18625 23747 ttn.v3 3.775km -108 -8.25 868.1MHz, SF9BW125, 4/5CR
2026-05-04 15:20:17 19.75°C 57.6875% 40 μg/m³ 40 μg/m³ 3.27V v255 52.1223 / 5.18625 23746 ttn.v3 3.775km -102 -0.25 867.1MHz, SF9BW125, 4/5CR
- -116 -6 867.1MHz, SF9BW125, 4/5CR
- -128 -11.25 867.1MHz, SF9BW125, 4/5CR
2026-05-04 15:03:49 20.9375°C 55.25% 31 μg/m³ 32 μg/m³ 3.27V v255 52.1223 / 5.18625 23745 ttn.v3 - -128 -13.25 868.5MHz, SF9BW125, 4/5CR
2026-05-04 14:30:54 20.25°C 62.1875% 37 μg/m³ 38 μg/m³ 3.26V v255 52.1223 / 5.18625 23743 ttn.v3 - -132 -14.75 868.3MHz, SF9BW125, 4/5CR
2026-05-04 14:14:26 19.5°C 53.625% 37 μg/m³ 39 μg/m³ 3.27V v255 52.1223 / 5.18625 23742 ttn.v3 3.775km -107 -9 867.7MHz, SF9BW125, 4/5CR
- -128 -11.5 867.7MHz, SF9BW125, 4/5CR
2026-05-04 13:25:04 19.0625°C 40% 36 μg/m³ 38 μg/m³ 3.27V v255 52.1223 / 5.18625 23739 ttn.v3 - -128 -14.5 868.5MHz, SF9BW125, 4/5CR

Message count: 200
Node count: 1

Messages per node

Number of messages in list aboveNodes
200

Statistics per gateway

GatewayNumber of messagesNumber of nodesNodes
1371
1081
961 (3.775km)
541

Filter by dataset